sensor_id;sensor_type;location;lat;lon;timestamp;temperature;humidity
4487;DHT22;2256;48.740;9.106;2022-10-16T00:02:24;15.30;99.90
4487;DHT22;2256;48.740;9.106;2022-10-16T00:04:51;15.30;99.90
4487;DHT22;2256;48.740;9.106;2022-10-16T00:07:17;15.40;99.90
4487;DHT22;2256;48.740;9.106;2022-10-16T00:09:45;15.40;99.90
4487;DHT22;2256;48.740;9.106;2022-10-16T00:12:12;15.40;99.90
4487;DHT22;2256;48.740;9.106;2022-10-16T00:14:40;15.30;99.90
4487;DHT22;2256;48.740;9.106;2022-10-16T00:17:09;15.30;99.90
4487;DHT22;2256;48.740;9.106;2022-10-16T00:19:36;15.30;99.90
4487;DHT22;2256;48.740;9.106;2022-10-16T00:22:02;15.30;99.90
4487;DHT22;2256;48.740;9.106;2022-10-16T00:24:29;15.30;99.90
4487;DHT22;2256;48.740;9.106;2022-10-16T00:26:56;15.30;99.90
4487;DHT22;2256;48.740;9.106;2022-10-16T00:29:23;15.30;99.90
4487;DHT22;2256;48.740;9.106;2022-10-16T00:31:51;15.20;99.90
4487;DHT22;2256;48.740;9.106;2022-10-16T00:34:18;15.30;99.90
4487;DHT22;2256;48.740;9.106;2022-10-16T00:36:44;15.20;99.90
4487;DHT22;2256;48.740;9.106;2022-10-16T00:39:11;15.20;99.90
4487;DHT22;2256;48.740;9.106;2022-10-16T00:41:38;15.10;99.90
4487;DHT22;2256;48.740;9.106;2022-10-16T00:47:08;15.10;99.90
4487;DHT22;2256;48.740;9.106;2022-10-16T00:49:36;15.00;99.90
4487;DHT22;2256;48.740;9.106;2022-10-16T00:52:03;15.10;99.90
4487;DHT22;2256;48.740;9.106;2022-10-16T00:54:31;15.00;99.90
4487;DHT22;2256;48.740;9.106;2022-10-16T00:57:00;15.00;99.90
4487;DHT22;2256;48.740;9.106;2022-10-16T00:59:30;15.00;99.90
4487;DHT22;2256;48.740;9.106;2022-10-16T01:01:57;14.90;99.90
4487;DHT22;2256;48.740;9.106;2022-10-16T01:04:39;14.90;99.90
4487;DHT22;2256;48.740;9.106;2022-10-16T01:07:11;14.90;99.90
4487;DHT22;2256;48.740;9.106;2022-10-16T01:09:50;14.90;99.90
4487;DHT22;2256;48.740;9.106;2022-10-16T01:12:25;15.00;99.90
4487;DHT22;2256;48.740;9.106;2022-10-16T01:14:55;15.00;99.90
4487;DHT22;2256;48.740;9.106;2022-10-16T01:17:30;15.10;99.90
4487;DHT22;2256;48.740;9.106;2022-10-16T01:20:08;15.00;99.90
4487;DHT22;2256;48.740;9.106;2022-10-16T01:22:46;15.00;99.90
4487;DHT22;2256;48.740;9.106;2022-10-16T01:25:22;15.10;99.90
4487;DHT22;2256;48.740;9.106;2022-10-16T01:27:53;15.10;99.90
4487;DHT22;2256;48.740;9.106;2022-10-16T01:30:23;15.10;99.90
4487;DHT22;2256;48.740;9.106;2022-10-16T01:32:55;15.00;99.90
4487;DHT22;2256;48.740;9.106;2022-10-16T01:35:26;15.00;99.90
4487;DHT22;2256;48.740;9.106;2022-10-16T01:37:57;15.00;99.90
4487;DHT22;2256;48.740;9.106;2022-10-16T01:40:27;14.90;99.90
4487;DHT22;2256;48.740;9.106;2022-10-16T01:42:59;14.90;99.90
4487;DHT22;2256;48.740;9.106;2022-10-16T01:45:28;14.90;99.90
4487;DHT22;2256;48.740;9.106;2022-10-16T01:47:56;14.90;99.90
4487;DHT22;2256;48.740;9.106;2022-10-16T01:50:24;14.80;99.90
4487;DHT22;2256;48.740;9.106;2022-10-16T01:52:55;14.70;99.90
4487;DHT22;2256;48.740;9.106;2022-10-16T01:55:28;14.80;99.90
4487;DHT22;2256;48.740;9.106;2022-10-16T01:57:59;14.80;99.90
4487;DHT22;2256;48.740;9.106;2022-10-16T02:00:26;14.70;99.90
4487;DHT22;2256;48.740;9.106;2022-10-16T02:02:55;14.90;99.90
4487;DHT22;2256;48.740;9.106;2022-10-16T02:05:28;14.90;99.90
4487;DHT22;2256;48.740;9.106;2022-10-16T02:07:57;14.70;99.90
4487;DHT22;2256;48.740;9.106;2022-10-16T02:10:24;14.80;99.90
4487;DHT22;2256;48.740;9.106;2022-10-16T02:12:59;14.80;99.90
4487;DHT22;2256;48.740;9.106;2022-10-16T02:15:27;14.90;99.90
4487;DHT22;2256;48.740;9.106;2022-10-16T02:17:54;14.80;99.90
4487;DHT22;2256;48.740;9.106;2022-10-16T02:20:25;14.90;99.90
4487;DHT22;2256;48.740;9.106;2022-10-16T02:22:54;14.90;99.90
4487;DHT22;2256;48.740;9.106;2022-10-16T02:25:28;14.90;99.90
4487;DHT22;2256;48.740;9.106;2022-10-16T02:28:01;14.90;99.90
4487;DHT22;2256;48.740;9.106;2022-10-16T02:30:32;14.90;99.90
4487;DHT22;2256;48.740;9.106;2022-10-16T02:33:02;14.90;99.90
4487;DHT22;2256;48.740;9.106;2022-10-16T02:35:30;14.90;99.90
4487;DHT22;2256;48.740;9.106;2022-10-16T02:37:58;14.80;99.90
4487;DHT22;2256;48.740;9.106;2022-10-16T02:40:26;14.90;99.90
4487;DHT22;2256;48.740;9.106;2022-10-16T02:42:54;14.90;99.90
4487;DHT22;2256;48.740;9.106;2022-10-16T02:45:23;14.90;99.90
4487;DHT22;2256;48.740;9.106;2022-10-16T02:47:50;14.90;99.90
4487;DHT22;2256;48.740;9.106;2022-10-16T02:50:17;14.90;99.90
4487;DHT22;2256;48.740;9.106;2022-10-16T02:52:43;14.80;99.90
4487;DHT22;2256;48.740;9.106;2022-10-16T02:55:10;14.90;99.90
4487;DHT22;2256;48.740;9.106;2022-10-16T02:57:37;14.80;99.90
4487;DHT22;2256;48.740;9.106;2022-10-16T03:00:06;14.80;99.90
4487;DHT22;2256;48.740;9.106;2022-10-16T03:02:34;14.80;99.90
4487;DHT22;2256;48.740;9.106;2022-10-16T03:05:01;14.80;99.90
4487;DHT22;2256;48.740;9.106;2022-10-16T03:07:28;14.80;99.90
4487;DHT22;2256;48.740;9.106;2022-10-16T03:09:55;14.80;99.90
4487;DHT22;2256;48.740;9.106;2022-10-16T03:12:22;14.80;99.90
4487;DHT22;2256;48.740;9.106;2022-10-16T03:14:48;14.90;99.90
4487;DHT22;2256;48.740;9.106;2022-10-16T03:17:15;14.80;99.90
4487;DHT22;2256;48.740;9.106;2022-10-16T03:19:44;14.90;99.90
4487;DHT22;2256;48.740;9.106;2022-10-16T03:22:11;15.00;99.90
4487;DHT22;2256;48.740;9.106;2022-10-16T03:24:38;14.90;99.90
4487;DHT22;2256;48.740;9.106;2022-10-16T03:27:05;14.90;99.90
4487;DHT22;2256;48.740;9.106;2022-10-16T03:29:31;14.90;99.90
4487;DHT22;2256;48.740;9.106;2022-10-16T03:31:59;14.90;99.90
4487;DHT22;2256;48.740;9.106;2022-10-16T03:34:26;14.90;99.90
4487;DHT22;2256;48.740;9.106;2022-10-16T03:36:54;14.90;99.90
4487;DHT22;2256;48.740;9.106;2022-10-16T03:39:21;14.80;99.90
4487;DHT22;2256;48.740;9.106;2022-10-16T03:41:48;15.00;99.90
4487;DHT22;2256;48.740;9.106;2022-10-16T03:44:15;15.00;99.90
4487;DHT22;2256;48.740;9.106;2022-10-16T03:46:41;15.00;99.90
4487;DHT22;2256;48.740;9.106;2022-10-16T03:49:08;15.00;99.90
4487;DHT22;2256;48.740;9.106;2022-10-16T03:51:35;15.00;99.90
4487;DHT22;2256;48.740;9.106;2022-10-16T03:54:04;15.00;99.90
4487;DHT22;2256;48.740;9.106;2022-10-16T03:56:31;15.00;99.90
4487;DHT22;2256;48.740;9.106;2022-10-16T03:58:57;15.00;99.90
4487;DHT22;2256;48.740;9.106;2022-10-16T04:01:24;15.10;99.90
4487;DHT22;2256;48.740;9.106;2022-10-16T04:03:51;15.20;99.90
4487;DHT22;2256;48.740;9.106;2022-10-16T04:06:18;15.10;99.90
4487;DHT22;2256;48.740;9.106;2022-10-16T04:08:45;15.10;99.90
4487;DHT22;2256;48.740;9.106;2022-10-16T04:11:13;15.10;99.90
4487;DHT22;2256;48.740;9.106;2022-10-16T04:13:39;15.20;99.90
4487;DHT22;2256;48.740;9.106;2022-10-16T04:16:07;15.20;99.90
4487;DHT22;2256;48.740;9.106;2022-10-16T04:18:33;15.10;99.90
4487;DHT22;2256;48.740;9.106;2022-10-16T04:21:03;15.10;99.90
4487;DHT22;2256;48.740;9.106;2022-10-16T04:23:30;15.10;99.90
4487;DHT22;2256;48.740;9.106;2022-10-16T04:25:56;15.10;99.90
4487;DHT22;2256;48.740;9.106;2022-10-16T04:28:24;15.20;99.90
4487;DHT22;2256;48.740;9.106;2022-10-16T04:30:51;15.20;99.90
4487;DHT22;2256;48.740;9.106;2022-10-16T04:33:18;15.10;99.90
4487;DHT22;2256;48.740;9.106;2022-10-16T04:35:45;15.10;99.90
4487;DHT22;2256;48.740;9.106;2022-10-16T04:38:11;15.10;99.90
4487;DHT22;2256;48.740;9.106;2022-10-16T04:40:38;15.20;99.90
4487;DHT22;2256;48.740;9.106;2022-10-16T04:43:05;15.20;99.90
4487;DHT22;2256;48.740;9.106;2022-10-16T04:45:34;15.20;99.90
4487;DHT22;2256;48.740;9.106;2022-10-16T04:48:00;15.20;99.90
4487;DHT22;2256;48.740;9.106;2022-10-16T04:50:27;15.30;99.90
4487;DHT22;2256;48.740;9.106;2022-10-16T04:52:54;15.30;99.90
4487;DHT22;2256;48.740;9.106;2022-10-16T04:55:21;15.30;99.90
4487;DHT22;2256;48.740;9.106;2022-10-16T04:57:48;15.30;99.90
4487;DHT22;2256;48.740;9.106;2022-10-16T05:00:15;15.30;99.90
4487;DHT22;2256;48.740;9.106;2022-10-16T05:02:43;15.30;99.90
4487;DHT22;2256;48.740;9.106;2022-10-16T05:05:10;15.30;99.90
4487;DHT22;2256;48.740;9.106;2022-10-16T05:07:37;15.40;99.90
4487;DHT22;2256;48.740;9.106;2022-10-16T05:10:04;15.40;99.90
4487;DHT22;2256;48.740;9.106;2022-10-16T05:12:32;15.40;99.90
4487;DHT22;2256;48.740;9.106;2022-10-16T05:14:59;15.30;99.90
4487;DHT22;2256;48.740;9.106;2022-10-16T05:17:26;15.20;99.90
4487;DHT22;2256;48.740;9.106;2022-10-16T05:19:54;15.20;99.90
4487;DHT22;2256;48.740;9.106;2022-10-16T05:22:21;15.30;99.90
4487;DHT22;2256;48.740;9.106;2022-10-16T05:24:48;15.30;99.90
4487;DHT22;2256;48.740;9.106;2022-10-16T05:27:14;15.20;99.90
4487;DHT22;2256;48.740;9.106;2022-10-16T05:29:44;15.20;99.90
4487;DHT22;2256;48.740;9.106;2022-10-16T05:32:12;15.20;99.90
4487;DHT22;2256;48.740;9.106;2022-10-16T05:34:39;15.10;99.90
4487;DHT22;2256;48.740;9.106;2022-10-16T05:37:07;15.10;99.90
4487;DHT22;2256;48.740;9.106;2022-10-16T05:39:34;15.00;99.90
4487;DHT22;2256;48.740;9.106;2022-10-16T05:42:02;14.90;99.90
4487;DHT22;2256;48.740;9.106;2022-10-16T05:44:30;14.80;99.90
4487;DHT22;2256;48.740;9.106;2022-10-16T05:46:57;14.70;99.90
4487;DHT22;2256;48.740;9.106;2022-10-16T05:49:24;14.70;99.90
4487;DHT22;2256;48.740;9.106;2022-10-16T05:51:51;14.60;99.90
4487;DHT22;2256;48.740;9.106;2022-10-16T05:54:19;14.60;99.90
4487;DHT22;2256;48.740;9.106;2022-10-16T05:56:45;14.60;99.90
4487;DHT22;2256;48.740;9.106;2022-10-16T05:59:12;14.60;99.90
4487;DHT22;2256;48.740;9.106;2022-10-16T06:01:39;14.80;99.90
4487;DHT22;2256;48.740;9.106;2022-10-16T06:04:06;14.90;99.90
4487;DHT22;2256;48.740;9.106;2022-10-16T06:06:32;15.00;99.90
4487;DHT22;2256;48.740;9.106;2022-10-16T06:09:02;14.90;99.90
4487;DHT22;2256;48.740;9.106;2022-10-16T06:11:32;15.00;99.90
4487;DHT22;2256;48.740;9.106;2022-10-16T06:14:01;15.10;99.90
4487;DHT22;2256;48.740;9.106;2022-10-16T06:16:32;15.20;99.90
4487;DHT22;2256;48.740;9.106;2022-10-16T06:18:59;15.20;99.90
4487;DHT22;2256;48.740;9.106;2022-10-16T06:21:27;15.30;99.90
4487;DHT22;2256;48.740;9.106;2022-10-16T06:23:55;15.50;99.90
4487;DHT22;2256;48.740;9.106;2022-10-16T06:26:24;15.50;99.90
4487;DHT22;2256;48.740;9.106;2022-10-16T06:28:54;15.60;99.90
4487;DHT22;2256;48.740;9.106;2022-10-16T06:31:21;15.70;99.90
4487;DHT22;2256;48.740;9.106;2022-10-16T06:33:51;15.70;99.90
4487;DHT22;2256;48.740;9.106;2022-10-16T06:36:18;15.80;99.90
4487;DHT22;2256;48.740;9.106;2022-10-16T06:38:45;15.80;99.90
4487;DHT22;2256;48.740;9.106;2022-10-16T06:41:13;15.80;99.90
4487;DHT22;2256;48.740;9.106;2022-10-16T06:43:41;15.90;99.90
4487;DHT22;2256;48.740;9.106;2022-10-16T06:46:10;16.00;99.90
4487;DHT22;2256;48.740;9.106;2022-10-16T06:48:38;16.10;99.90
4487;DHT22;2256;48.740;9.106;2022-10-16T06:51:06;16.20;99.90
4487;DHT22;2256;48.740;9.106;2022-10-16T06:53:34;16.30;99.90
4487;DHT22;2256;48.740;9.106;2022-10-16T06:56:07;16.30;99.90
4487;DHT22;2256;48.740;9.106;2022-10-16T06:58:34;16.30;99.90
4487;DHT22;2256;48.740;9.106;2022-10-16T07:01:02;16.40;99.90
4487;DHT22;2256;48.740;9.106;2022-10-16T07:03:31;16.40;99.90
4487;DHT22;2256;48.740;9.106;2022-10-16T07:06:01;16.40;99.90
4487;DHT22;2256;48.740;9.106;2022-10-16T07:08:30;16.40;99.90
4487;DHT22;2256;48.740;9.106;2022-10-16T07:10:59;16.60;99.90
4487;DHT22;2256;48.740;9.106;2022-10-16T07:13:26;16.70;99.90
4487;DHT22;2256;48.740;9.106;2022-10-16T07:15:53;16.70;99.90
4487;DHT22;2256;48.740;9.106;2022-10-16T07:18:19;16.80;99.90
4487;DHT22;2256;48.740;9.106;2022-10-16T07:20:48;16.90;99.90
4487;DHT22;2256;48.740;9.106;2022-10-16T07:23:15;16.90;99.90
4487;DHT22;2256;48.740;9.106;2022-10-16T07:25:42;16.90;99.90
4487;DHT22;2256;48.740;9.106;2022-10-16T07:28:08;16.70;99.90
4487;DHT22;2256;48.740;9.106;2022-10-16T07:30:35;16.90;99.90
4487;DHT22;2256;48.740;9.106;2022-10-16T07:33:03;16.90;99.90
4487;DHT22;2256;48.740;9.106;2022-10-16T07:35:30;16.70;99.90
4487;DHT22;2256;48.740;9.106;2022-10-16T07:37:58;16.70;99.90
4487;DHT22;2256;48.740;9.106;2022-10-16T07:40:25;16.70;99.90
4487;DHT22;2256;48.740;9.106;2022-10-16T07:42:52;16.70;99.90
4487;DHT22;2256;48.740;9.106;2022-10-16T07:45:19;16.90;99.90
4487;DHT22;2256;48.740;9.106;2022-10-16T07:47:47;16.90;99.90
4487;DHT22;2256;48.740;9.106;2022-10-16T07:50:14;16.80;99.90
4487;DHT22;2256;48.740;9.106;2022-10-16T07:52:40;16.90;99.90
4487;DHT22;2256;48.740;9.106;2022-10-16T07:55:09;17.00;99.90
4487;DHT22;2256;48.740;9.106;2022-10-16T07:57:36;17.00;99.90
4487;DHT22;2256;48.740;9.106;2022-10-16T08:00:03;17.00;99.90
4487;DHT22;2256;48.740;9.106;2022-10-16T08:02:31;17.10;99.90
4487;DHT22;2256;48.740;9.106;2022-10-16T08:04:58;17.20;99.90
4487;DHT22;2256;48.740;9.106;2022-10-16T08:07:24;17.30;99.90
4487;DHT22;2256;48.740;9.106;2022-10-16T08:09:51;17.40;99.90
4487;DHT22;2256;48.740;9.106;2022-10-16T08:12:19;17.50;99.90
4487;DHT22;2256;48.740;9.106;2022-10-16T08:14:46;17.60;99.90
4487;DHT22;2256;48.740;9.106;2022-10-16T08:17:14;17.90;99.90
4487;DHT22;2256;48.740;9.106;2022-10-16T08:19:44;18.20;99.90
4487;DHT22;2256;48.740;9.106;2022-10-16T08:22:12;18.40;99.90
4487;DHT22;2256;48.740;9.106;2022-10-16T08:24:39;18.80;99.90
4487;DHT22;2256;48.740;9.106;2022-10-16T08:27:06;19.10;99.90
4487;DHT22;2256;48.740;9.106;2022-10-16T08:29:35;19.20;99.90
4487;DHT22;2256;48.740;9.106;2022-10-16T08:32:03;19.30;99.90
4487;DHT22;2256;48.740;9.106;2022-10-16T08:34:30;19.80;99.90
4487;DHT22;2256;48.740;9.106;2022-10-16T08:36:57;19.90;99.90
4487;DHT22;2256;48.740;9.106;2022-10-16T08:39:24;19.80;99.90
4487;DHT22;2256;48.740;9.106;2022-10-16T08:42:14;19.90;99.90
4487;DHT22;2256;48.740;9.106;2022-10-16T08:45:08;19.90;99.90
4487;DHT22;2256;48.740;9.106;2022-10-16T08:47:48;19.80;99.90
4487;DHT22;2256;48.740;9.106;2022-10-16T08:50:21;19.60;99.90
4487;DHT22;2256;48.740;9.106;2022-10-16T08:52:49;19.40;99.90
4487;DHT22;2256;48.740;9.106;2022-10-16T08:55:28;19.30;99.90
4487;DHT22;2256;48.740;9.106;2022-10-16T08:57:55;19.30;99.90
4487;DHT22;2256;48.740;9.106;2022-10-16T09:00:24;19.30;99.90
4487;DHT22;2256;48.740;9.106;2022-10-16T09:02:55;19.40;99.90
4487;DHT22;2256;48.740;9.106;2022-10-16T09:05:44;19.60;99.90
4487;DHT22;2256;48.740;9.106;2022-10-16T09:08:21;19.80;99.90
4487;DHT22;2256;48.740;9.106;2022-10-16T09:10:55;20.10;99.90
4487;DHT22;2256;48.740;9.106;2022-10-16T09:13:27;20.40;99.90
4487;DHT22;2256;48.740;9.106;2022-10-16T09:16:09;21.20;99.90
4487;DHT22;2256;48.740;9.106;2022-10-16T09:18:41;21.70;99.90
4487;DHT22;2256;48.740;9.106;2022-10-16T09:21:13;22.60;99.90
4487;DHT22;2256;48.740;9.106;2022-10-16T09:23:41;23.70;99.90
4487;DHT22;2256;48.740;9.106;2022-10-16T09:26:11;24.20;99.90
4487;DHT22;2256;48.740;9.106;2022-10-16T09:28:39;23.80;99.90
4487;DHT22;2256;48.740;9.106;2022-10-16T09:31:13;23.40;99.90
4487;DHT22;2256;48.740;9.106;2022-10-16T09:33:42;23.50;99.90
4487;DHT22;2256;48.740;9.106;2022-10-16T09:36:11;24.20;99.90
4487;DHT22;2256;48.740;9.106;2022-10-16T09:38:39;24.50;99.90
4487;DHT22;2256;48.740;9.106;2022-10-16T09:41:15;24.10;99.90
4487;DHT22;2256;48.740;9.106;2022-10-16T09:43:47;23.50;99.90
4487;DHT22;2256;48.740;9.106;2022-10-16T09:46:26;22.80;99.90
4487;DHT22;2256;48.740;9.106;2022-10-16T09:48:55;22.60;99.90
4487;DHT22;2256;48.740;9.106;2022-10-16T09:51:26;22.70;99.90
4487;DHT22;2256;48.740;9.106;2022-10-16T09:53:58;23.00;99.90
4487;DHT22;2256;48.740;9.106;2022-10-16T09:56:27;23.10;99.90
4487;DHT22;2256;48.740;9.106;2022-10-16T09:58:55;23.20;99.90
4487;DHT22;2256;48.740;9.106;2022-10-16T10:01:28;23.10;99.90
4487;DHT22;2256;48.740;9.106;2022-10-16T10:03:57;23.10;99.90
4487;DHT22;2256;48.740;9.106;2022-10-16T10:06:28;23.10;99.90
4487;DHT22;2256;48.740;9.106;2022-10-16T10:09:03;22.90;99.90
4487;DHT22;2256;48.740;9.106;2022-10-16T10:11:42;22.70;99.90
4487;DHT22;2256;48.740;9.106;2022-10-16T10:14:18;22.70;99.90
4487;DHT22;2256;48.740;9.106;2022-10-16T10:16:47;22.60;99.90
4487;DHT22;2256;48.740;9.106;2022-10-16T10:19:15;22.60;99.90
4487;DHT22;2256;48.740;9.106;2022-10-16T10:21:42;22.70;99.90
4487;DHT22;2256;48.740;9.106;2022-10-16T10:24:12;23.00;99.90
4487;DHT22;2256;48.740;9.106;2022-10-16T10:26:44;23.00;99.90
4487;DHT22;2256;48.740;9.106;2022-10-16T10:29:20;23.00;99.90
4487;DHT22;2256;48.740;9.106;2022-10-16T10:32:02;23.00;99.90
4487;DHT22;2256;48.740;9.106;2022-10-16T10:34:49;23.00;99.90
4487;DHT22;2256;48.740;9.106;2022-10-16T10:37:33;23.00;99.90
4487;DHT22;2256;48.740;9.106;2022-10-16T10:40:11;23.20;99.90
4487;DHT22;2256;48.740;9.106;2022-10-16T10:42:46;23.50;99.90
4487;DHT22;2256;48.740;9.106;2022-10-16T10:45:18;23.80;99.90
4487;DHT22;2256;48.740;9.106;2022-10-16T10:48:06;24.00;99.90
4487;DHT22;2256;48.740;9.106;2022-10-16T10:50:44;24.30;99.90
4487;DHT22;2256;48.740;9.106;2022-10-16T10:53:21;24.40;99.90
4487;DHT22;2256;48.740;9.106;2022-10-16T10:55:57;24.40;99.90
4487;DHT22;2256;48.740;9.106;2022-10-16T10:58:57;24.30;99.90
4487;DHT22;2256;48.740;9.106;2022-10-16T11:01:35;24.30;99.90
4487;DHT22;2256;48.740;9.106;2022-10-16T11:04:29;24.30;99.90
4487;DHT22;2256;48.740;9.106;2022-10-16T11:07:02;24.40;99.90
4487;DHT22;2256;48.740;9.106;2022-10-16T11:09:33;24.60;99.90
4487;DHT22;2256;48.740;9.106;2022-10-16T11:12:05;24.60;99.90
4487;DHT22;2256;48.740;9.106;2022-10-16T11:14:38;24.50;99.90
4487;DHT22;2256;48.740;9.106;2022-10-16T11:17:10;24.40;99.90
4487;DHT22;2256;48.740;9.106;2022-10-16T11:19:43;24.20;99.90
4487;DHT22;2256;48.740;9.106;2022-10-16T11:22:16;24.00;99.90
4487;DHT22;2256;48.740;9.106;2022-10-16T11:24:48;24.00;99.90
4487;DHT22;2256;48.740;9.106;2022-10-16T11:27:21;24.00;99.90
4487;DHT22;2256;48.740;9.106;2022-10-16T11:29:53;24.00;99.90
4487;DHT22;2256;48.740;9.106;2022-10-16T11:32:26;23.90;99.90
4487;DHT22;2256;48.740;9.106;2022-10-16T11:35:00;23.90;99.90
4487;DHT22;2256;48.740;9.106;2022-10-16T11:37:32;23.80;99.90
4487;DHT22;2256;48.740;9.106;2022-10-16T11:40:11;24.00;99.90
4487;DHT22;2256;48.740;9.106;2022-10-16T11:42:49;24.00;99.90
4487;DHT22;2256;48.740;9.106;2022-10-16T11:45:26;24.00;99.90
4487;DHT22;2256;48.740;9.106;2022-10-16T11:48:01;24.10;99.90
4487;DHT22;2256;48.740;9.106;2022-10-16T11:50:35;24.30;99.90
4487;DHT22;2256;48.740;9.106;2022-10-16T11:53:11;24.40;99.90
4487;DHT22;2256;48.740;9.106;2022-10-16T11:55:41;24.50;99.90
4487;DHT22;2256;48.740;9.106;2022-10-16T11:58:15;24.60;99.90
4487;DHT22;2256;48.740;9.106;2022-10-16T12:00:51;24.60;99.90
4487;DHT22;2256;48.740;9.106;2022-10-16T12:03:23;24.80;99.90
4487;DHT22;2256;48.740;9.106;2022-10-16T12:06:02;24.90;99.50
4487;DHT22;2256;48.740;9.106;2022-10-16T12:08:33;24.80;99.60
4487;DHT22;2256;48.740;9.106;2022-10-16T12:11:07;24.90;99.90
4487;DHT22;2256;48.740;9.106;2022-10-16T12:13:36;25.10;99.90
4487;DHT22;2256;48.740;9.106;2022-10-16T12:16:22;25.30;99.70
4487;DHT22;2256;48.740;9.106;2022-10-16T12:18:49;25.20;99.30
4487;DHT22;2256;48.740;9.106;2022-10-16T12:21:18;25.20;99.50
4487;DHT22;2256;48.740;9.106;2022-10-16T12:23:58;25.20;99.90
4487;DHT22;2256;48.740;9.106;2022-10-16T12:26:28;25.30;99.80
4487;DHT22;2256;48.740;9.106;2022-10-16T12:29:09;25.30;98.70
4487;DHT22;2256;48.740;9.106;2022-10-16T12:31:39;25.10;99.30
4487;DHT22;2256;48.740;9.106;2022-10-16T12:34:22;25.10;99.90
4487;DHT22;2256;48.740;9.106;2022-10-16T12:36:51;25.10;99.80
4487;DHT22;2256;48.740;9.106;2022-10-16T12:39:21;24.90;99.40
4487;DHT22;2256;48.740;9.106;2022-10-16T12:41:48;24.70;99.50
4487;DHT22;2256;48.740;9.106;2022-10-16T12:44:32;24.60;99.90
4487;DHT22;2256;48.740;9.106;2022-10-16T12:46:59;24.40;99.90
4487;DHT22;2256;48.740;9.106;2022-10-16T12:49:35;24.30;99.90
4487;DHT22;2256;48.740;9.106;2022-10-16T12:52:04;24.10;99.90
4487;DHT22;2256;48.740;9.106;2022-10-16T12:54:49;23.90;99.90
4487;DHT22;2256;48.740;9.106;2022-10-16T12:57:28;23.80;99.90
4487;DHT22;2256;48.740;9.106;2022-10-16T13:00:04;23.60;99.90
4487;DHT22;2256;48.740;9.106;2022-10-16T13:05:35;23.30;99.90
4487;DHT22;2256;48.740;9.106;2022-10-16T13:08:27;23.20;99.90
4487;DHT22;2256;48.740;9.106;2022-10-16T13:11:04;23.20;99.90
4487;DHT22;2256;48.740;9.106;2022-10-16T13:13:59;23.20;99.90
4487;DHT22;2256;48.740;9.106;2022-10-16T13:16:37;23.20;99.90
4487;DHT22;2256;48.740;9.106;2022-10-16T13:19:15;23.20;99.90
4487;DHT22;2256;48.740;9.106;2022-10-16T13:21:47;23.30;99.90
4487;DHT22;2256;48.740;9.106;2022-10-16T13:24:31;23.30;99.90
4487;DHT22;2256;48.740;9.106;2022-10-16T13:27:09;23.40;99.90
4487;DHT22;2256;48.740;9.106;2022-10-16T13:29:38;23.50;99.90
4487;DHT22;2256;48.740;9.106;2022-10-16T13:32:09;23.50;99.90
4487;DHT22;2256;48.740;9.106;2022-10-16T13:34:44;23.50;99.90
4487;DHT22;2256;48.740;9.106;2022-10-16T13:37:17;23.60;99.90
4487;DHT22;2256;48.740;9.106;2022-10-16T13:40:01;23.60;99.90
4487;DHT22;2256;48.740;9.106;2022-10-16T13:42:29;23.70;99.90
4487;DHT22;2256;48.740;9.106;2022-10-16T13:44:56;23.60;99.90
4487;DHT22;2256;48.740;9.106;2022-10-16T13:47:24;23.70;99.90
4487;DHT22;2256;48.740;9.106;2022-10-16T13:49:59;23.60;99.90
4487;DHT22;2256;48.740;9.106;2022-10-16T13:52:27;23.70;99.90
4487;DHT22;2256;48.740;9.106;2022-10-16T13:54:55;23.70;99.90
4487;DHT22;2256;48.740;9.106;2022-10-16T13:57:23;23.80;99.90
4487;DHT22;2256;48.740;9.106;2022-10-16T13:59:51;23.60;99.90
4487;DHT22;2256;48.740;9.106;2022-10-16T14:02:20;23.40;99.90
4487;DHT22;2256;48.740;9.106;2022-10-16T14:04:49;23.30;99.90
4487;DHT22;2256;48.740;9.106;2022-10-16T14:07:21;23.10;99.90
4487;DHT22;2256;48.740;9.106;2022-10-16T14:09:50;23.10;99.90
4487;DHT22;2256;48.740;9.106;2022-10-16T14:12:19;23.00;99.90
4487;DHT22;2256;48.740;9.106;2022-10-16T14:14:48;23.00;99.90
4487;DHT22;2256;48.740;9.106;2022-10-16T14:17:15;22.90;99.90
4487;DHT22;2256;48.740;9.106;2022-10-16T14:19:46;22.90;99.90
4487;DHT22;2256;48.740;9.106;2022-10-16T14:22:24;22.90;99.90
4487;DHT22;2256;48.740;9.106;2022-10-16T14:24:52;23.00;99.90
4487;DHT22;2256;48.740;9.106;2022-10-16T14:27:28;23.00;99.90
4487;DHT22;2256;48.740;9.106;2022-10-16T14:30:15;23.00;99.90
4487;DHT22;2256;48.740;9.106;2022-10-16T14:32:53;23.00;99.90
4487;DHT22;2256;48.740;9.106;2022-10-16T14:35:26;23.10;99.90
4487;DHT22;2256;48.740;9.106;2022-10-16T14:37:54;23.10;99.90
4487;DHT22;2256;48.740;9.106;2022-10-16T14:40:23;23.10;99.90
4487;DHT22;2256;48.740;9.106;2022-10-16T14:42:52;23.10;99.90
4487;DHT22;2256;48.740;9.106;2022-10-16T14:45:20;23.10;99.90
4487;DHT22;2256;48.740;9.106;2022-10-16T14:47:50;23.10;99.90
4487;DHT22;2256;48.740;9.106;2022-10-16T14:50:17;23.10;99.90
4487;DHT22;2256;48.740;9.106;2022-10-16T14:52:44;23.20;99.90
4487;DHT22;2256;48.740;9.106;2022-10-16T14:55:11;23.20;99.90
4487;DHT22;2256;48.740;9.106;2022-10-16T14:57:38;23.20;99.90
4487;DHT22;2256;48.740;9.106;2022-10-16T15:00:15;23.30;99.90
4487;DHT22;2256;48.740;9.106;2022-10-16T15:02:42;23.50;99.90
4487;DHT22;2256;48.740;9.106;2022-10-16T15:05:16;23.40;99.90
4487;DHT22;2256;48.740;9.106;2022-10-16T15:07:43;23.40;99.90
4487;DHT22;2256;48.740;9.106;2022-10-16T15:10:11;23.20;99.90
4487;DHT22;2256;48.740;9.106;2022-10-16T15:12:38;23.10;99.90
4487;DHT22;2256;48.740;9.106;2022-10-16T15:15:21;23.00;99.90
4487;DHT22;2256;48.740;9.106;2022-10-16T15:17:50;22.80;99.90
4487;DHT22;2256;48.740;9.106;2022-10-16T15:20:18;22.80;99.90
4487;DHT22;2256;48.740;9.106;2022-10-16T15:22:44;22.70;99.90
4487;DHT22;2256;48.740;9.106;2022-10-16T15:25:22;22.70;99.90
4487;DHT22;2256;48.740;9.106;2022-10-16T15:27:52;22.70;99.90
4487;DHT22;2256;48.740;9.106;2022-10-16T15:30:20;22.70;99.90
4487;DHT22;2256;48.740;9.106;2022-10-16T15:32:47;22.60;99.90
4487;DHT22;2256;48.740;9.106;2022-10-16T15:35:14;22.50;99.90
4487;DHT22;2256;48.740;9.106;2022-10-16T15:37:40;22.40;99.90
4487;DHT22;2256;48.740;9.106;2022-10-16T15:40:08;22.20;99.90
4487;DHT22;2256;48.740;9.106;2022-10-16T15:42:35;22.00;99.90
4487;DHT22;2256;48.740;9.106;2022-10-16T15:45:02;21.90;99.90
4487;DHT22;2256;48.740;9.106;2022-10-16T15:47:31;21.80;99.90
4487;DHT22;2256;48.740;9.106;2022-10-16T15:49:57;21.70;99.90
4487;DHT22;2256;48.740;9.106;2022-10-16T15:52:24;21.50;99.90
4487;DHT22;2256;48.740;9.106;2022-10-16T15:54:51;21.60;99.90
4487;DHT22;2256;48.740;9.106;2022-10-16T15:57:18;21.50;99.90
4487;DHT22;2256;48.740;9.106;2022-10-16T15:59:44;21.40;99.90
4487;DHT22;2256;48.740;9.106;2022-10-16T16:02:11;21.30;99.90
4487;DHT22;2256;48.740;9.106;2022-10-16T16:04:39;21.20;99.90
4487;DHT22;2256;48.740;9.106;2022-10-16T16:07:06;21.10;99.90
4487;DHT22;2256;48.740;9.106;2022-10-16T16:09:33;21.00;99.90
4487;DHT22;2256;48.740;9.106;2022-10-16T16:12:03;20.90;99.90
4487;DHT22;2256;48.740;9.106;2022-10-16T16:14:29;20.70;99.90
4487;DHT22;2256;48.740;9.106;2022-10-16T16:16:58;20.60;99.90
4487;DHT22;2256;48.740;9.106;2022-10-16T16:19:25;20.50;99.90
4487;DHT22;2256;48.740;9.106;2022-10-16T16:21:53;20.40;99.90
4487;DHT22;2256;48.740;9.106;2022-10-16T16:24:20;20.30;99.90
4487;DHT22;2256;48.740;9.106;2022-10-16T16:26:47;20.10;99.90
4487;DHT22;2256;48.740;9.106;2022-10-16T16:29:14;19.90;99.90